Alden, Alabama
Current Conditions -  °F | °C
As of 9:53 AM on Monday 26 Jan 2015 (Local Time) from KBHM Reporting Station
Overcast Overcast  
Wind Chill: 32°   Ceiling: 1700
Heat Index: 39°   Visibility: 10mi
Dew Point: 33°   Wind: 10mph
Humidity: 79%   Direction: 310°NW
Pressure: 30.02"   Gusts: NA
Location:  33.652°N, 86.9784°W
Report Text: KBHM 261553Z 31009KT 10SM OVC017 04/01 A3002 RMK AO2 SLP168 T00390006
Loading
Personal Weather Stations






























Interactive Weather Map New forecast layout! Learn more

10-Day Weather Forecast

Advertisements
Track Severe Weather on mobile